Darrington, WA (98241)

11:24 PM PDT on October 24, 2014 (GMT -0700)
Glacier View Internet | Change Station
CLOSE
Current Station
Personal Weather Station
Location: Darrington, WA
Elevation: 549 ft
Nearby Weather Stations

Elev 549 ft 48.25 °N, 121.61 °W | Updated 9 minutes ago

Rain
Rain
48.2 °F
Feels Like 48 °F
N
2.0
Wind Variable Wind from ENE
Gusts 3.0 mph

Today
High -- | Low -- °F
--% Chance of Precip.
Yesterday
High -- | Low -- °F
Precip. -- in
7:39 AM 6:00 PM
New Moon, 2% visible
Pressure 29.82 in
Visibility 10.0 miles
Clouds Scattered Clouds 5000 ft
Overcast 6500 ft
Windchill 48 °F
Dew Point Not available.
Humidity Not available.
Rainfall 0.13 in
Snow Depth Not available.
UV 0 out of 12
Pollen .40 out of 12
PM2.5 Good
Flu Activity Sporadic
METAR KAWO 250615Z AUTO 36004KT 10SM SCT050 OVC065 10/07 A2982 RMK AO1

More Conditions Fewer Conditions

Pressure 29.82 in
Visibility 10.0 miles
Clouds Scattered Clouds 5000 ft
Overcast 6500 ft
Windchill 48 °F
Dew Point Not available.
Humidity Not available.
Rainfall 0.13 in
Snow Depth Not available.
UV 0 out of 12
Pollen .40 out of 12
PM2.5 Good
Flu Activity Sporadic
METAR KAWO 250615Z AUTO 36004KT 10SM SCT050 OVC065 10/07 A2982 RMK AO1

More Conditions Fewer Conditions

10-Day Weather Forecast

Almanac

Astronomy

Oct. 24, 2014 Rise Set
Actual Time 7:39 AM PDT 6:00 PM PDT
Civil Twilight 7:07 AM PDT 6:32 PM PDT
Nautical Twilight 6:31 AM PDT 7:08 PM PDT
Astronomical Twilight 5:55 AM PDT 7:45 PM PDT
Moon 8:26 AM PDT (10/24) 6:40 PM PDT (10/24)
Length of Visible Light 11h 24m
Length of Day
10h 20m
Tomorrow will be 3m 17s shorter.
New Moon, 2% of the Moon is Illuminated
Oct 25
New Moon
Oct 30
First Quarter
Nov 6
Full
Nov 14
Last Quarter
Nov 22
New

Community

WunderPhotos

Upload Photos

1,764,785 photos uploaded!

Nearby

Air Quality

  Air Quality AQ Index Pollutant
Yesterday Good
OZONE
Yesterday Good
PM2.5
Current Good
PM2.5
Friday Good
PM2.5
Saturday Good
PM2.5
Sunday Good
PM2.5
Monday Good
PM2.5
Tuesday Good
PM2.5
Wednesday Good
PM2.5

Snow Depth

Station Depth Elevation
Lyman Lake 5 in 5900 ft
Elbow Lake 0 in 3200 ft
Alpine Meadows 0 in 3500 ft
Park Creek Ridge 0 in 4600 ft
Skookum Creek 0 in 3920 ft

Earthquake Activity

City Distance Mag. Time & Date
Birch Bay, Washington 68 miles 2.8 3:02 AM PDT
2014-10-24
Minimum magnitude displayed is 2.5.

Coastal Water Temperatures

Place Temperature
No Stations Reporting

Nearby Weather Stations